Villa Hills, Kentucky
Current Conditions -  °F | °C
As of 9:17 PM on Thursday 20 Nov 2014 (Local Time) from KI69 Reporting Station
Clear Clear  
Wind Chill: 22°   Ceiling: Unl
Heat Index: 28°   Visibility: 10mi
Dew Point: 18°   Wind: 6mph
Humidity: 64%   Direction: 250°WSW
Pressure: 30.22"   Gusts: NA
Location:  39.0279°N, 84.5635°W
Report Text: KI69 210217Z AUTO 25005KT 10SM CLR M02/M08 A3022 RMK AO1
Loading
Personal Weather Stations






























Interactive Weather Map New forecast layout! Learn more

10-Day Weather Forecast

Advertisements
Track Severe Weather on mobile